Terminal Aerodrome Forecast
Issued by NWS Binghamton, NY

Home | Current Version | Previous Version | Text Only | Print | Product List | Glossary On
Versions: 1 2 3 4 5 6 7 8 9 10 11 12 13 14 15 16 17
000
FTUS41 KBGM 252341
TAFSYR
TAF
KSYR 252341Z 2600/2624 09012KT P6SM -RA BKN040 OVC100
     FM260500 09006KT P6SM -RA OVC025
     FM261100 08005KT P6SM BKN015 OVC025
     FM261700 09006KT P6SM OVC025
     FM262000 08005KT P6SM OVC050=

USA.gov is the U.S. government's official web portal to all federal, state and local government web resources and services.